sensor_id;sensor_type;location;lat;lon;timestamp;temperature;humidity
6738;DHT22;3406;49.902;8.596;2023-02-19T00:00:54;11.10;89.00
6738;DHT22;3406;49.902;8.596;2023-02-19T00:03:21;11.10;89.00
6738;DHT22;3406;49.902;8.596;2023-02-19T00:05:48;11.10;89.10
6738;DHT22;3406;49.902;8.596;2023-02-19T00:08:16;11.10;89.30
6738;DHT22;3406;49.902;8.596;2023-02-19T00:10:42;11.10;89.40
6738;DHT22;3406;49.902;8.596;2023-02-19T00:13:09;11.10;90.10
6738;DHT22;3406;49.902;8.596;2023-02-19T00:15:35;11.10;89.60
6738;DHT22;3406;49.902;8.596;2023-02-19T00:18:02;11.10;89.80
6738;DHT22;3406;49.902;8.596;2023-02-19T00:20:29;11.10;89.90
6738;DHT22;3406;49.902;8.596;2023-02-19T00:22:55;11.00;90.00
6738;DHT22;3406;49.902;8.596;2023-02-19T00:25:23;11.00;90.00
6738;DHT22;3406;49.902;8.596;2023-02-19T00:27:50;11.10;90.10
6738;DHT22;3406;49.902;8.596;2023-02-19T00:30:17;11.00;90.10
6738;DHT22;3406;49.902;8.596;2023-02-19T00:32:49;11.00;90.10
6738;DHT22;3406;49.902;8.596;2023-02-19T00:35:15;11.00;90.20
6738;DHT22;3406;49.902;8.596;2023-02-19T00:37:42;11.00;90.20
6738;DHT22;3406;49.902;8.596;2023-02-19T00:40:09;11.00;90.30
6738;DHT22;3406;49.902;8.596;2023-02-19T00:42:37;11.00;90.40
6738;DHT22;3406;49.902;8.596;2023-02-19T00:45:04;11.00;90.40
6738;DHT22;3406;49.902;8.596;2023-02-19T00:47:31;11.00;90.40
6738;DHT22;3406;49.902;8.596;2023-02-19T00:49:58;11.00;90.40
6738;DHT22;3406;49.902;8.596;2023-02-19T00:52:24;11.00;90.50
6738;DHT22;3406;49.902;8.596;2023-02-19T00:54:51;11.00;90.50
6738;DHT22;3406;49.902;8.596;2023-02-19T00:57:17;11.00;90.50
6738;DHT22;3406;49.902;8.596;2023-02-19T00:59:45;11.00;90.60
6738;DHT22;3406;49.902;8.596;2023-02-19T01:02:12;11.00;90.60
6738;DHT22;3406;49.902;8.596;2023-02-19T01:04:39;11.00;90.60
6738;DHT22;3406;49.902;8.596;2023-02-19T01:07:05;11.00;90.70
6738;DHT22;3406;49.902;8.596;2023-02-19T01:09:32;11.00;90.70
6738;DHT22;3406;49.902;8.596;2023-02-19T01:11:59;11.00;90.70
6738;DHT22;3406;49.902;8.596;2023-02-19T01:14:26;11.00;90.80
6738;DHT22;3406;49.902;8.596;2023-02-19T01:16:54;11.00;90.90
6738;DHT22;3406;49.902;8.596;2023-02-19T01:19:20;11.00;91.00
6738;DHT22;3406;49.902;8.596;2023-02-19T01:21:47;11.00;91.00
6738;DHT22;3406;49.902;8.596;2023-02-19T01:24:14;10.90;91.00
6738;DHT22;3406;49.902;8.596;2023-02-19T01:26:41;10.90;91.10
6738;DHT22;3406;49.902;8.596;2023-02-19T01:29:09;10.90;91.20
6738;DHT22;3406;49.902;8.596;2023-02-19T01:31:35;10.90;91.20
6738;DHT22;3406;49.902;8.596;2023-02-19T01:34:03;10.90;91.30
6738;DHT22;3406;49.902;8.596;2023-02-19T01:36:32;10.90;91.40
6738;DHT22;3406;49.902;8.596;2023-02-19T01:38:59;10.90;91.50
6738;DHT22;3406;49.902;8.596;2023-02-19T01:41:28;10.90;91.60
6738;DHT22;3406;49.902;8.596;2023-02-19T01:43:57;10.80;91.60
6738;DHT22;3406;49.902;8.596;2023-02-19T01:46:26;10.80;91.70
6738;DHT22;3406;49.902;8.596;2023-02-19T01:48:53;10.80;91.80
6738;DHT22;3406;49.902;8.596;2023-02-19T01:51:22;10.80;91.90
6738;DHT22;3406;49.902;8.596;2023-02-19T01:53:51;10.80;92.00
6738;DHT22;3406;49.902;8.596;2023-02-19T01:56:20;10.80;92.10
6738;DHT22;3406;49.902;8.596;2023-02-19T01:58:48;10.70;92.10
6738;DHT22;3406;49.902;8.596;2023-02-19T02:01:14;10.70;92.20
6738;DHT22;3406;49.902;8.596;2023-02-19T02:03:45;10.70;92.30
6738;DHT22;3406;49.902;8.596;2023-02-19T02:06:17;10.70;92.50
6738;DHT22;3406;49.902;8.596;2023-02-19T02:08:49;10.70;92.60
6738;DHT22;3406;49.902;8.596;2023-02-19T02:11:34;10.70;92.70
6738;DHT22;3406;49.902;8.596;2023-02-19T02:14:02;10.70;92.80
6738;DHT22;3406;49.902;8.596;2023-02-19T02:16:35;10.70;93.00
6738;DHT22;3406;49.902;8.596;2023-02-19T02:19:18;10.70;93.10
6738;DHT22;3406;49.902;8.596;2023-02-19T02:22:00;10.60;93.20
6738;DHT22;3406;49.902;8.596;2023-02-19T02:27:37;10.60;93.50
6738;DHT22;3406;49.902;8.596;2023-02-19T02:30:16;10.60;93.70
6738;DHT22;3406;49.902;8.596;2023-02-19T02:32:55;10.60;93.80
6738;DHT22;3406;49.902;8.596;2023-02-19T02:35:25;10.60;94.00
6738;DHT22;3406;49.902;8.596;2023-02-19T02:37:56;10.60;94.10
6738;DHT22;3406;49.902;8.596;2023-02-19T02:40:24;10.50;94.20
6738;DHT22;3406;49.902;8.596;2023-02-19T02:42:51;10.50;94.20
6738;DHT22;3406;49.902;8.596;2023-02-19T02:45:28;10.60;94.40
6738;DHT22;3406;49.902;8.596;2023-02-19T02:48:04;10.50;94.50
6738;DHT22;3406;49.902;8.596;2023-02-19T02:50:36;10.50;94.70
6738;DHT22;3406;49.902;8.596;2023-02-19T02:53:09;10.50;94.90
6738;DHT22;3406;49.902;8.596;2023-02-19T02:55:54;10.50;95.00
6738;DHT22;3406;49.902;8.596;2023-02-19T02:58:23;10.50;95.20
6738;DHT22;3406;49.902;8.596;2023-02-19T03:00:56;10.50;95.30
6738;DHT22;3406;49.902;8.596;2023-02-19T03:03:45;10.50;95.40
6738;DHT22;3406;49.902;8.596;2023-02-19T03:06:15;10.50;95.50
6738;DHT22;3406;49.902;8.596;2023-02-19T03:08:47;10.50;95.60
6738;DHT22;3406;49.902;8.596;2023-02-19T03:11:14;10.50;95.60
6738;DHT22;3406;49.902;8.596;2023-02-19T03:14:05;10.50;95.70
6738;DHT22;3406;49.902;8.596;2023-02-19T03:16:54;10.50;95.80
6738;DHT22;3406;49.902;8.596;2023-02-19T03:19:41;10.50;95.90
6738;DHT22;3406;49.902;8.596;2023-02-19T03:22:13;10.50;96.10
6738;DHT22;3406;49.902;8.596;2023-02-19T03:24:44;10.50;96.30
6738;DHT22;3406;49.902;8.596;2023-02-19T03:27:29;10.50;96.50
6738;DHT22;3406;49.902;8.596;2023-02-19T03:30:02;10.40;96.60
6738;DHT22;3406;49.902;8.596;2023-02-19T03:32:33;10.50;96.80
6738;DHT22;3406;49.902;8.596;2023-02-19T03:35:05;10.50;96.90
6738;DHT22;3406;49.902;8.596;2023-02-19T03:37:36;10.50;97.20
6738;DHT22;3406;49.902;8.596;2023-02-19T03:40:04;10.50;96.90
6738;DHT22;3406;49.902;8.596;2023-02-19T03:42:37;10.50;96.90
6738;DHT22;3406;49.902;8.596;2023-02-19T03:45:13;10.50;97.00
6738;DHT22;3406;49.902;8.596;2023-02-19T03:47:49;10.50;96.90
6738;DHT22;3406;49.902;8.596;2023-02-19T03:50:20;10.50;96.90
6738;DHT22;3406;49.902;8.596;2023-02-19T03:52:54;10.50;96.90
6738;DHT22;3406;49.902;8.596;2023-02-19T03:55:28;10.60;97.00
6738;DHT22;3406;49.902;8.596;2023-02-19T03:58:02;10.50;96.90
6738;DHT22;3406;49.902;8.596;2023-02-19T04:00:33;10.50;96.90
6738;DHT22;3406;49.902;8.596;2023-02-19T04:03:10;10.60;96.90
6738;DHT22;3406;49.902;8.596;2023-02-19T04:05:42;10.60;96.90
6738;DHT22;3406;49.902;8.596;2023-02-19T04:08:13;10.60;96.90
6738;DHT22;3406;49.902;8.596;2023-02-19T04:10:40;10.60;96.80
6738;DHT22;3406;49.902;8.596;2023-02-19T04:13:10;10.60;96.90
6738;DHT22;3406;49.902;8.596;2023-02-19T04:15:40;10.50;96.90
6738;DHT22;3406;49.902;8.596;2023-02-19T04:18:13;10.50;96.90
6738;DHT22;3406;49.902;8.596;2023-02-19T04:20:42;10.50;96.90
6738;DHT22;3406;49.902;8.596;2023-02-19T04:23:10;10.50;97.00
6738;DHT22;3406;49.902;8.596;2023-02-19T04:25:38;10.50;97.00
6738;DHT22;3406;49.902;8.596;2023-02-19T04:28:07;10.50;97.00
6738;DHT22;3406;49.902;8.596;2023-02-19T04:30:34;10.50;97.00
6738;DHT22;3406;49.902;8.596;2023-02-19T04:33:00;10.40;97.00
6738;DHT22;3406;49.902;8.596;2023-02-19T04:35:28;10.40;97.00
6738;DHT22;3406;49.902;8.596;2023-02-19T04:37:55;10.40;97.10
6738;DHT22;3406;49.902;8.596;2023-02-19T04:40:22;10.40;97.10
6738;DHT22;3406;49.902;8.596;2023-02-19T04:42:48;10.40;97.20
6738;DHT22;3406;49.902;8.596;2023-02-19T04:45:15;10.40;97.20
6738;DHT22;3406;49.902;8.596;2023-02-19T04:47:42;10.30;97.20
6738;DHT22;3406;49.902;8.596;2023-02-19T04:50:09;10.30;97.30
6738;DHT22;3406;49.902;8.596;2023-02-19T04:52:36;10.30;97.40
6738;DHT22;3406;49.902;8.596;2023-02-19T04:55:04;10.30;97.50
6738;DHT22;3406;49.902;8.596;2023-02-19T04:57:31;10.40;97.60
6738;DHT22;3406;49.902;8.596;2023-02-19T04:59:57;10.40;97.60
6738;DHT22;3406;49.902;8.596;2023-02-19T05:02:24;10.40;97.70
6738;DHT22;3406;49.902;8.596;2023-02-19T05:04:51;10.40;97.60
6738;DHT22;3406;49.902;8.596;2023-02-19T05:07:17;10.50;97.70
6738;DHT22;3406;49.902;8.596;2023-02-19T05:09:45;10.50;97.80
6738;DHT22;3406;49.902;8.596;2023-02-19T05:12:12;10.40;97.80
6738;DHT22;3406;49.902;8.596;2023-02-19T05:14:39;10.40;97.90
6738;DHT22;3406;49.902;8.596;2023-02-19T05:17:05;10.40;98.10
6738;DHT22;3406;49.902;8.596;2023-02-19T05:19:32;10.40;98.40
6738;DHT22;3406;49.902;8.596;2023-02-19T05:21:58;10.30;98.60
6738;DHT22;3406;49.902;8.596;2023-02-19T05:24:25;10.30;98.80
6738;DHT22;3406;49.902;8.596;2023-02-19T05:26:54;10.30;99.00
6738;DHT22;3406;49.902;8.596;2023-02-19T05:29:20;10.30;99.20
6738;DHT22;3406;49.902;8.596;2023-02-19T05:31:47;10.30;99.30
6738;DHT22;3406;49.902;8.596;2023-02-19T05:34:13;10.30;99.40
6738;DHT22;3406;49.902;8.596;2023-02-19T05:36:40;10.30;99.50
6738;DHT22;3406;49.902;8.596;2023-02-19T05:39:08;10.30;99.50
6738;DHT22;3406;49.902;8.596;2023-02-19T05:41:36;10.30;99.60
6738;DHT22;3406;49.902;8.596;2023-02-19T05:44:04;10.30;99.60
6738;DHT22;3406;49.902;8.596;2023-02-19T05:46:31;10.20;99.70
6738;DHT22;3406;49.902;8.596;2023-02-19T05:48:58;10.20;99.70
6738;DHT22;3406;49.902;8.596;2023-02-19T05:51:26;10.20;99.80
6738;DHT22;3406;49.902;8.596;2023-02-19T05:53:53;10.20;99.90
6738;DHT22;3406;49.902;8.596;2023-02-19T05:56:29;10.20;99.90
6738;DHT22;3406;49.902;8.596;2023-02-19T05:58:56;10.20;99.90
6738;DHT22;3406;49.902;8.596;2023-02-19T06:01:25;10.20;99.90
6738;DHT22;3406;49.902;8.596;2023-02-19T06:03:52;10.20;99.90
6738;DHT22;3406;49.902;8.596;2023-02-19T06:06:19;10.20;99.90
6738;DHT22;3406;49.902;8.596;2023-02-19T06:08:47;10.20;99.90
6738;DHT22;3406;49.902;8.596;2023-02-19T06:11:14;10.20;99.90
6738;DHT22;3406;49.902;8.596;2023-02-19T06:13:41;10.20;99.90
6738;DHT22;3406;49.902;8.596;2023-02-19T06:16:08;10.20;99.90
6738;DHT22;3406;49.902;8.596;2023-02-19T06:18:36;10.20;99.90
6738;DHT22;3406;49.902;8.596;2023-02-19T06:21:06;10.30;99.90
6738;DHT22;3406;49.902;8.596;2023-02-19T06:23:33;10.30;99.90
6738;DHT22;3406;49.902;8.596;2023-02-19T06:26:05;10.30;99.90
6738;DHT22;3406;49.902;8.596;2023-02-19T06:28:32;10.40;99.90
6738;DHT22;3406;49.902;8.596;2023-02-19T06:30:59;10.40;99.90
6738;DHT22;3406;49.902;8.596;2023-02-19T06:33:25;10.40;99.90
6738;DHT22;3406;49.902;8.596;2023-02-19T06:35:56;10.40;99.90
6738;DHT22;3406;49.902;8.596;2023-02-19T06:38:24;10.40;99.90
6738;DHT22;3406;49.902;8.596;2023-02-19T06:40:51;10.40;99.90
6738;DHT22;3406;49.902;8.596;2023-02-19T06:43:17;10.40;99.90
6738;DHT22;3406;49.902;8.596;2023-02-19T06:45:44;10.40;99.90
6738;DHT22;3406;49.902;8.596;2023-02-19T06:48:11;10.40;99.90
6738;DHT22;3406;49.902;8.596;2023-02-19T06:50:37;10.30;99.90
6738;DHT22;3406;49.902;8.596;2023-02-19T06:53:05;10.30;99.90
6738;DHT22;3406;49.902;8.596;2023-02-19T06:55:33;10.30;99.90
6738;DHT22;3406;49.902;8.596;2023-02-19T06:58:00;10.30;99.90
6738;DHT22;3406;49.902;8.596;2023-02-19T07:00:26;10.30;99.90
6738;DHT22;3406;49.902;8.596;2023-02-19T07:02:53;10.30;99.90
6738;DHT22;3406;49.902;8.596;2023-02-19T07:05:21;10.30;99.90
6738;DHT22;3406;49.902;8.596;2023-02-19T07:07:47;10.30;99.90
6738;DHT22;3406;49.902;8.596;2023-02-19T07:10:16;10.30;99.90
6738;DHT22;3406;49.902;8.596;2023-02-19T07:12:43;10.30;99.90
6738;DHT22;3406;49.902;8.596;2023-02-19T07:15:10;10.30;99.90
6738;DHT22;3406;49.902;8.596;2023-02-19T07:17:36;10.30;99.90
6738;DHT22;3406;49.902;8.596;2023-02-19T07:20:03;10.30;99.90
6738;DHT22;3406;49.902;8.596;2023-02-19T07:22:30;10.40;99.90
6738;DHT22;3406;49.902;8.596;2023-02-19T07:24:57;10.40;99.90
6738;DHT22;3406;49.902;8.596;2023-02-19T07:27:24;10.50;99.90
6738;DHT22;3406;49.902;8.596;2023-02-19T07:29:51;10.50;99.90
6738;DHT22;3406;49.902;8.596;2023-02-19T07:32:18;10.60;99.90
6738;DHT22;3406;49.902;8.596;2023-02-19T07:34:44;10.60;99.90
6738;DHT22;3406;49.902;8.596;2023-02-19T07:37:11;10.70;99.80
6738;DHT22;3406;49.902;8.596;2023-02-19T07:39:38;10.70;99.60
6738;DHT22;3406;49.902;8.596;2023-02-19T07:42:04;10.80;99.30
6738;DHT22;3406;49.902;8.596;2023-02-19T07:44:32;10.80;99.10
6738;DHT22;3406;49.902;8.596;2023-02-19T07:46:59;10.80;98.90
6738;DHT22;3406;49.902;8.596;2023-02-19T07:49:25;10.80;98.60
6738;DHT22;3406;49.902;8.596;2023-02-19T07:51:53;10.90;98.50
6738;DHT22;3406;49.902;8.596;2023-02-19T07:54:19;10.90;98.30
6738;DHT22;3406;49.902;8.596;2023-02-19T07:56:46;11.00;98.20
6738;DHT22;3406;49.902;8.596;2023-02-19T07:59:13;11.00;98.00
6738;DHT22;3406;49.902;8.596;2023-02-19T08:01:41;11.00;97.80
6738;DHT22;3406;49.902;8.596;2023-02-19T08:04:25;11.10;97.70
6738;DHT22;3406;49.902;8.596;2023-02-19T08:06:52;11.10;97.50
6738;DHT22;3406;49.902;8.596;2023-02-19T08:09:19;11.10;97.10
6738;DHT22;3406;49.902;8.596;2023-02-19T08:11:45;11.10;97.00
6738;DHT22;3406;49.902;8.596;2023-02-19T08:14:32;11.20;96.80
6738;DHT22;3406;49.902;8.596;2023-02-19T08:17:00;11.20;96.60
6738;DHT22;3406;49.902;8.596;2023-02-19T08:19:27;11.20;96.50
6738;DHT22;3406;49.902;8.596;2023-02-19T08:21:54;11.30;96.30
6738;DHT22;3406;49.902;8.596;2023-02-19T08:24:20;11.30;96.20
6738;DHT22;3406;49.902;8.596;2023-02-19T08:26:47;11.30;95.90
6738;DHT22;3406;49.902;8.596;2023-02-19T08:29:14;11.40;96.00
6738;DHT22;3406;49.902;8.596;2023-02-19T08:31:40;11.40;95.50
6738;DHT22;3406;49.902;8.596;2023-02-19T08:34:08;11.40;95.20
6738;DHT22;3406;49.902;8.596;2023-02-19T08:36:35;11.40;95.00
6738;DHT22;3406;49.902;8.596;2023-02-19T08:39:03;11.40;95.00
6738;DHT22;3406;49.902;8.596;2023-02-19T08:41:29;11.40;94.80
6738;DHT22;3406;49.902;8.596;2023-02-19T08:43:56;11.40;94.70
6738;DHT22;3406;49.902;8.596;2023-02-19T08:46:22;11.40;94.40
6738;DHT22;3406;49.902;8.596;2023-02-19T08:48:49;11.40;94.40
6738;DHT22;3406;49.902;8.596;2023-02-19T08:51:17;11.30;94.40
6738;DHT22;3406;49.902;8.596;2023-02-19T08:53:45;11.30;94.60
6738;DHT22;3406;49.902;8.596;2023-02-19T08:56:13;11.30;94.80
6738;DHT22;3406;49.902;8.596;2023-02-19T08:58:40;11.30;95.00
6738;DHT22;3406;49.902;8.596;2023-02-19T09:01:07;11.30;95.10
6738;DHT22;3406;49.902;8.596;2023-02-19T09:03:35;11.30;95.10
6738;DHT22;3406;49.902;8.596;2023-02-19T09:06:02;11.30;95.10
6738;DHT22;3406;49.902;8.596;2023-02-19T09:08:30;11.40;95.10
6738;DHT22;3406;49.902;8.596;2023-02-19T09:10:58;11.40;94.90
6738;DHT22;3406;49.902;8.596;2023-02-19T09:13:24;11.50;94.80
6738;DHT22;3406;49.902;8.596;2023-02-19T09:15:51;11.50;94.50
6738;DHT22;3406;49.902;8.596;2023-02-19T09:18:18;11.60;94.50
6738;DHT22;3406;49.902;8.596;2023-02-19T09:20:44;11.60;94.20
6738;DHT22;3406;49.902;8.596;2023-02-19T09:23:11;11.60;94.00
6738;DHT22;3406;49.902;8.596;2023-02-19T09:25:39;11.60;93.70
6738;DHT22;3406;49.902;8.596;2023-02-19T09:28:05;11.70;93.60
6738;DHT22;3406;49.902;8.596;2023-02-19T09:30:32;11.70;93.20
6738;DHT22;3406;49.902;8.596;2023-02-19T09:32:59;11.80;93.10
6738;DHT22;3406;49.902;8.596;2023-02-19T09:35:25;11.80;93.00
6738;DHT22;3406;49.902;8.596;2023-02-19T09:37:52;11.90;92.80
6738;DHT22;3406;49.902;8.596;2023-02-19T09:40:19;11.90;92.50
6738;DHT22;3406;49.902;8.596;2023-02-19T09:42:48;12.00;92.20
6738;DHT22;3406;49.902;8.596;2023-02-19T09:45:20;12.00;91.90
6738;DHT22;3406;49.902;8.596;2023-02-19T09:47:48;12.10;91.70
6738;DHT22;3406;49.902;8.596;2023-02-19T09:50:21;12.10;91.40
6738;DHT22;3406;49.902;8.596;2023-02-19T09:52:51;12.10;91.10
6738;DHT22;3406;49.902;8.596;2023-02-19T09:55:26;12.10;90.70
6738;DHT22;3406;49.902;8.596;2023-02-19T09:57:57;12.10;90.50
6738;DHT22;3406;49.902;8.596;2023-02-19T10:00:26;12.10;90.40
6738;DHT22;3406;49.902;8.596;2023-02-19T10:02:59;12.10;90.30
6738;DHT22;3406;49.902;8.596;2023-02-19T10:05:28;12.10;90.10
6738;DHT22;3406;49.902;8.596;2023-02-19T10:07:55;12.10;90.10
6738;DHT22;3406;49.902;8.596;2023-02-19T10:10:27;12.10;90.00
6738;DHT22;3406;49.902;8.596;2023-02-19T10:13:01;12.10;89.90
6738;DHT22;3406;49.902;8.596;2023-02-19T10:15:37;12.10;89.60
6738;DHT22;3406;49.902;8.596;2023-02-19T10:18:07;12.10;89.80
6738;DHT22;3406;49.902;8.596;2023-02-19T10:20:35;12.00;88.60
6738;DHT22;3406;49.902;8.596;2023-02-19T10:23:04;12.00;88.40
6738;DHT22;3406;49.902;8.596;2023-02-19T10:25:32;12.00;88.40
6738;DHT22;3406;49.902;8.596;2023-02-19T10:28:01;12.00;88.10
6738;DHT22;3406;49.902;8.596;2023-02-19T10:30:30;12.00;87.90
6738;DHT22;3406;49.902;8.596;2023-02-19T10:33:00;12.00;87.50
6738;DHT22;3406;49.902;8.596;2023-02-19T10:35:27;12.10;87.40
6738;DHT22;3406;49.902;8.596;2023-02-19T10:37:55;12.10;87.20
6738;DHT22;3406;49.902;8.596;2023-02-19T10:40:24;12.10;86.90
6738;DHT22;3406;49.902;8.596;2023-02-19T10:42:54;12.20;86.30
6738;DHT22;3406;49.902;8.596;2023-02-19T10:45:26;12.20;85.80
6738;DHT22;3406;49.902;8.596;2023-02-19T10:47:55;12.20;85.50
6738;DHT22;3406;49.902;8.596;2023-02-19T10:50:26;12.30;85.10
6738;DHT22;3406;49.902;8.596;2023-02-19T10:52:56;12.30;84.80
6738;DHT22;3406;49.902;8.596;2023-02-19T10:55:29;12.20;84.60
6738;DHT22;3406;49.902;8.596;2023-02-19T10:57:57;12.20;84.70
6738;DHT22;3406;49.902;8.596;2023-02-19T11:00:27;12.20;84.00
6738;DHT22;3406;49.902;8.596;2023-02-19T11:03:19;12.10;84.20
6738;DHT22;3406;49.902;8.596;2023-02-19T11:06:00;12.00;84.40
6738;DHT22;3406;49.902;8.596;2023-02-19T11:08:28;11.90;85.20
6738;DHT22;3406;49.902;8.596;2023-02-19T11:10:55;11.90;86.00
6738;DHT22;3406;49.902;8.596;2023-02-19T11:13:26;11.80;86.70
6738;DHT22;3406;49.902;8.596;2023-02-19T11:15:58;11.90;87.30
6738;DHT22;3406;49.902;8.596;2023-02-19T11:18:27;11.90;86.60
6738;DHT22;3406;49.902;8.596;2023-02-19T11:20:56;12.00;86.40
6738;DHT22;3406;49.902;8.596;2023-02-19T11:23:26;12.20;86.20
6738;DHT22;3406;49.902;8.596;2023-02-19T11:25:55;12.20;85.40
6738;DHT22;3406;49.902;8.596;2023-02-19T11:28:33;12.40;85.00
6738;DHT22;3406;49.902;8.596;2023-02-19T11:31:18;12.50;84.20
6738;DHT22;3406;49.902;8.596;2023-02-19T11:33:52;12.60;83.00
6738;DHT22;3406;49.902;8.596;2023-02-19T11:36:28;12.70;82.60
6738;DHT22;3406;49.902;8.596;2023-02-19T11:38:56;12.90;82.60
6738;DHT22;3406;49.902;8.596;2023-02-19T11:41:35;12.90;82.20
6738;DHT22;3406;49.902;8.596;2023-02-19T11:44:16;13.00;81.00
6738;DHT22;3406;49.902;8.596;2023-02-19T11:47:00;13.00;80.40
6738;DHT22;3406;49.902;8.596;2023-02-19T11:49:38;13.10;80.20
6738;DHT22;3406;49.902;8.596;2023-02-19T11:52:17;13.10;79.40
6738;DHT22;3406;49.902;8.596;2023-02-19T11:54:50;13.20;79.00
6738;DHT22;3406;49.902;8.596;2023-02-19T11:57:28;13.30;79.00
6738;DHT22;3406;49.902;8.596;2023-02-19T12:00:07;13.30;78.40
6738;DHT22;3406;49.902;8.596;2023-02-19T12:02:46;13.30;78.00
6738;DHT22;3406;49.902;8.596;2023-02-19T12:05:31;13.30;78.10
6738;DHT22;3406;49.902;8.596;2023-02-19T12:08:23;13.30;78.00
6738;DHT22;3406;49.902;8.596;2023-02-19T12:11:10;13.40;77.80
6738;DHT22;3406;49.902;8.596;2023-02-19T12:13:59;13.40;77.20
6738;DHT22;3406;49.902;8.596;2023-02-19T12:16:30;13.40;76.80
6738;DHT22;3406;49.902;8.596;2023-02-19T12:19:12;13.40;76.70
6738;DHT22;3406;49.902;8.596;2023-02-19T12:21:55;13.40;75.10
6738;DHT22;3406;49.902;8.596;2023-02-19T12:24:40;13.30;74.80
6738;DHT22;3406;49.902;8.596;2023-02-19T12:27:19;13.20;74.60
6738;DHT22;3406;49.902;8.596;2023-02-19T12:30:00;13.20;74.30
6738;DHT22;3406;49.902;8.596;2023-02-19T12:32:48;13.20;74.30
6738;DHT22;3406;49.902;8.596;2023-02-19T12:35:33;13.20;74.00
6738;DHT22;3406;49.902;8.596;2023-02-19T12:38:09;13.20;72.80
6738;DHT22;3406;49.902;8.596;2023-02-19T12:40:45;13.20;72.40
6738;DHT22;3406;49.902;8.596;2023-02-19T12:43:17;13.30;71.90
6738;DHT22;3406;49.902;8.596;2023-02-19T12:45:46;13.30;71.10
6738;DHT22;3406;49.902;8.596;2023-02-19T12:48:23;13.30;70.90
6738;DHT22;3406;49.902;8.596;2023-02-19T12:50:55;13.50;70.40
6738;DHT22;3406;49.902;8.596;2023-02-19T12:53:30;13.60;70.30
6738;DHT22;3406;49.902;8.596;2023-02-19T12:56:03;13.70;69.90
6738;DHT22;3406;49.902;8.596;2023-02-19T12:58:36;13.80;69.10
6738;DHT22;3406;49.902;8.596;2023-02-19T13:01:04;13.80;68.30
6738;DHT22;3406;49.902;8.596;2023-02-19T13:03:36;13.80;68.20
6738;DHT22;3406;49.902;8.596;2023-02-19T13:06:10;13.80;67.70
6738;DHT22;3406;49.902;8.596;2023-02-19T13:08:43;13.80;67.20
6738;DHT22;3406;49.902;8.596;2023-02-19T13:11:15;13.80;67.20
6738;DHT22;3406;49.902;8.596;2023-02-19T13:13:46;13.90;67.10
6738;DHT22;3406;49.902;8.596;2023-02-19T13:16:16;13.90;66.30
6738;DHT22;3406;49.902;8.596;2023-02-19T13:18:47;13.90;66.50
6738;DHT22;3406;49.902;8.596;2023-02-19T13:21:19;13.80;66.00
6738;DHT22;3406;49.902;8.596;2023-02-19T13:24:03;13.80;66.00
6738;DHT22;3406;49.902;8.596;2023-02-19T13:26:46;13.80;66.50
6738;DHT22;3406;49.902;8.596;2023-02-19T13:29:24;13.80;66.30
6738;DHT22;3406;49.902;8.596;2023-02-19T13:32:13;13.70;66.60
6738;DHT22;3406;49.902;8.596;2023-02-19T13:34:53;13.70;67.00
6738;DHT22;3406;49.902;8.596;2023-02-19T13:37:24;13.60;67.30
6738;DHT22;3406;49.902;8.596;2023-02-19T13:39:52;13.50;67.30
6738;DHT22;3406;49.902;8.596;2023-02-19T13:42:24;13.50;67.40
6738;DHT22;3406;49.902;8.596;2023-02-19T13:44:51;13.40;66.80
6738;DHT22;3406;49.902;8.596;2023-02-19T13:47:47;13.40;66.50
6738;DHT22;3406;49.902;8.596;2023-02-19T13:50:19;13.30;66.10
6738;DHT22;3406;49.902;8.596;2023-02-19T13:52:48;13.30;66.20
6738;DHT22;3406;49.902;8.596;2023-02-19T13:55:47;13.40;66.40
6738;DHT22;3406;49.902;8.596;2023-02-19T14:04:47;13.50;66.90
6738;DHT22;3406;49.902;8.596;2023-02-19T14:10:12;13.50;66.40
6738;DHT22;3406;49.902;8.596;2023-02-19T14:12:40;13.50;66.10
6738;DHT22;3406;49.902;8.596;2023-02-19T14:15:39;13.40;66.00
6738;DHT22;3406;49.902;8.596;2023-02-19T14:18:42;13.40;66.10
6738;DHT22;3406;49.902;8.596;2023-02-19T14:21:15;13.40;66.30
6738;DHT22;3406;49.902;8.596;2023-02-19T14:23:43;13.40;66.40
6738;DHT22;3406;49.902;8.596;2023-02-19T14:26:11;13.40;66.50
6738;DHT22;3406;49.902;8.596;2023-02-19T14:28:43;13.50;66.60
6738;DHT22;3406;49.902;8.596;2023-02-19T14:31:37;13.50;66.60
6738;DHT22;3406;49.902;8.596;2023-02-19T14:34:06;13.50;66.50
6738;DHT22;3406;49.902;8.596;2023-02-19T14:36:42;13.50;66.40
6738;DHT22;3406;49.902;8.596;2023-02-19T14:39:14;13.40;66.40
6738;DHT22;3406;49.902;8.596;2023-02-19T14:41:45;13.40;66.90
6738;DHT22;3406;49.902;8.596;2023-02-19T14:44:15;13.20;68.00
6738;DHT22;3406;49.902;8.596;2023-02-19T14:46:48;13.00;69.60
6738;DHT22;3406;49.902;8.596;2023-02-19T14:49:22;12.90;70.90
6738;DHT22;3406;49.902;8.596;2023-02-19T14:51:52;12.70;71.80
6738;DHT22;3406;49.902;8.596;2023-02-19T14:54:30;12.60;72.60
6738;DHT22;3406;49.902;8.596;2023-02-19T14:57:01;12.50;73.20
6738;DHT22;3406;49.902;8.596;2023-02-19T14:59:29;12.50;73.80
6738;DHT22;3406;49.902;8.596;2023-02-19T15:01:58;12.60;74.20
6738;DHT22;3406;49.902;8.596;2023-02-19T15:04:27;12.60;74.40
6738;DHT22;3406;49.902;8.596;2023-02-19T15:06:56;12.70;74.90
6738;DHT22;3406;49.902;8.596;2023-02-19T15:09:30;12.60;75.20
6738;DHT22;3406;49.902;8.596;2023-02-19T15:11:59;12.50;75.50
6738;DHT22;3406;49.902;8.596;2023-02-19T15:14:27;12.50;76.00
6738;DHT22;3406;49.902;8.596;2023-02-19T15:16:58;12.50;76.50
6738;DHT22;3406;49.902;8.596;2023-02-19T15:19:25;12.40;76.80
6738;DHT22;3406;49.902;8.596;2023-02-19T15:21:53;12.30;77.60
6738;DHT22;3406;49.902;8.596;2023-02-19T15:24:20;12.30;77.10
6738;DHT22;3406;49.902;8.596;2023-02-19T15:26:49;12.30;77.20
6738;DHT22;3406;49.902;8.596;2023-02-19T15:29:19;12.30;77.10
6738;DHT22;3406;49.902;8.596;2023-02-19T15:31:47;12.30;77.10
6738;DHT22;3406;49.902;8.596;2023-02-19T15:34:16;12.30;76.80
6738;DHT22;3406;49.902;8.596;2023-02-19T15:36:43;12.30;76.60
6738;DHT22;3406;49.902;8.596;2023-02-19T15:39:18;12.30;76.20
6738;DHT22;3406;49.902;8.596;2023-02-19T15:41:50;12.20;76.20
6738;DHT22;3406;49.902;8.596;2023-02-19T15:44:31;12.10;77.20
6738;DHT22;3406;49.902;8.596;2023-02-19T15:47:07;12.00;78.20
6738;DHT22;3406;49.902;8.596;2023-02-19T15:49:45;11.80;79.30
6738;DHT22;3406;49.902;8.596;2023-02-19T15:52:19;11.70;80.30
6738;DHT22;3406;49.902;8.596;2023-02-19T15:54:51;11.60;80.90
6738;DHT22;3406;49.902;8.596;2023-02-19T15:57:24;11.60;81.40
6738;DHT22;3406;49.902;8.596;2023-02-19T15:59:58;11.50;82.00
6738;DHT22;3406;49.902;8.596;2023-02-19T16:02:27;11.50;82.80
6738;DHT22;3406;49.902;8.596;2023-02-19T16:04:54;11.40;83.30
6738;DHT22;3406;49.902;8.596;2023-02-19T16:07:23;11.40;83.70
6738;DHT22;3406;49.902;8.596;2023-02-19T16:10:05;11.40;84.10
6738;DHT22;3406;49.902;8.596;2023-02-19T16:12:32;11.40;84.40
6738;DHT22;3406;49.902;8.596;2023-02-19T16:15:11;11.40;84.70
6738;DHT22;3406;49.902;8.596;2023-02-19T16:17:41;11.40;85.00
6738;DHT22;3406;49.902;8.596;2023-02-19T16:20:18;11.40;85.10
6738;DHT22;3406;49.902;8.596;2023-02-19T16:22:45;11.40;85.40
6738;DHT22;3406;49.902;8.596;2023-02-19T16:25:23;11.40;85.60
6738;DHT22;3406;49.902;8.596;2023-02-19T16:27:50;11.40;85.80
6738;DHT22;3406;49.902;8.596;2023-02-19T16:30:27;11.40;85.90
6738;DHT22;3406;49.902;8.596;2023-02-19T16:36:32;11.30;86.40
6738;DHT22;3406;49.902;8.596;2023-02-19T16:39:18;11.30;86.60
6738;DHT22;3406;49.902;8.596;2023-02-19T16:42:12;11.30;86.80